Time;durP1;ratioP1;P1;durP2;ratioP2;P2;SDS_P1;SDS_P2;PMS_P1;PMS_P2;Temp;Humidity;BMP_temperature;BMP_pressure;BME280_temperature;BME280_humidity;BME280_pressure;Samples;Min_cycle;Max_cycle;Signal;HPM_P1;HPM_P2
2022/11/21 00:01:53;;;;;;;;;;;1.80;99.90;;;;;;5100619;28;19964;-66
2022/11/21 00:04:19;;;;;;;;;;;1.80;99.90;;;;;;5098857;28;19919;-66
2022/11/21 00:06:44;;;;;;;;;;;1.80;99.90;;;;;;5105641;27;19973;-66
2022/11/21 00:09:10;;;;;;;;;;;1.80;99.90;;;;;;5098264;28;19924;-66
2022/11/21 00:11:35;;;;;;;;;;;1.80;99.90;;;;;;5102254;28;19928;-66
2022/11/21 00:14:01;;;;;;;;;;;1.80;99.90;;;;;;5099155;28;19924;-66
2022/11/21 00:16:26;;;;;;;;;;;1.80;99.90;;;;;;5101275;28;19920;-66
2022/11/21 00:18:52;;;;;;;;;;;1.80;99.90;;;;;;5099898;28;19959;-66
2022/11/21 00:21:18;;;;;;;;;;;1.80;99.90;;;;;;5109724;28;19924;-66
2022/11/21 00:23:44;;;;;;;;;;;1.70;99.90;;;;;;5106581;27;20054;-66
2022/11/21 00:26:10;;;;;;;;;;;1.70;99.90;;;;;;5103756;28;20466;-66
2022/11/21 00:28:36;;;;;;;;;;;1.70;99.90;;;;;;5106259;28;19920;-66
2022/11/21 00:31:01;;;;;;;;;;;1.70;99.90;;;;;;5106005;28;19973;-66
2022/11/21 00:33:27;;;;;;;;;;;1.70;99.90;;;;;;5104001;28;19983;-64
2022/11/21 00:35:52;;;;;;;;;;;1.70;99.90;;;;;;5104866;28;19967;-65
2022/11/21 00:38:17;;;;;;;;;;;1.80;99.90;;;;;;5104535;28;19930;-65
2022/11/21 00:40:43;;;;;;;;;;;1.70;99.90;;;;;;5103797;28;19924;-65
2022/11/21 00:43:09;;;;;;;;;;;1.70;99.90;;;;;;5105169;28;19931;-65
2022/11/21 00:45:34;;;;;;;;;;;1.70;99.90;;;;;;5106065;28;19942;-66
2022/11/21 00:48:00;;;;;;;;;;;1.70;99.90;;;;;;5099877;28;19948;-65
2022/11/21 00:50:25;;;;;;;;;;;1.60;99.90;;;;;;5102333;28;19919;-66
2022/11/21 00:52:55;;;;;;;;;;;1.60;99.90;;;;;;5106920;28;19946;-66
2022/11/21 00:55:20;;;;;;;;;;;1.60;99.90;;;;;;5104326;28;20277;-66
2022/11/21 00:57:46;;;;;;;;;;;1.60;99.90;;;;;;5087734;28;19935;-66
2022/11/21 01:00:12;;;;;;;;;;;1.60;99.90;;;;;;5101106;28;19931;-66
2022/11/21 01:02:37;;;;;;;;;;;1.60;99.90;;;;;;5094913;28;19959;-66
2022/11/21 01:05:03;;;;;;;;;;;1.60;99.90;;;;;;5097220;28;19920;-66
2022/11/21 01:07:28;;;;;;;;;;;1.60;99.90;;;;;;5099143;28;19928;-66
2022/11/21 01:09:54;;;;;;;;;;;1.60;99.90;;;;;;5098060;28;19923;-66
2022/11/21 01:12:19;;;;;;;;;;;1.60;99.90;;;;;;5099811;28;19965;-66
2022/11/21 01:14:45;;;;;;;;;;;1.50;99.90;;;;;;5105771;28;19924;-66
2022/11/21 01:17:10;;;;;;;;;;;1.50;99.90;;;;;;5096344;28;20001;-66
2022/11/21 01:19:35;;;;;;;;;;;1.50;99.90;;;;;;5104542;28;19933;-66
2022/11/21 01:22:01;;;;;;;;;;;1.40;99.90;;;;;;5095510;28;20052;-66
2022/11/21 01:24:26;;;;;;;;;;;1.30;99.90;;;;;;5099914;28;19920;-66
2022/11/21 01:26:53;;;;;;;;;;;1.30;99.90;;;;;;5100410;28;19920;-66
2022/11/21 01:29:19;;;;;;;;;;;1.20;99.90;;;;;;5110198;28;19982;-66
2022/11/21 01:31:44;;;;;;;;;;;1.10;99.90;;;;;;5102890;27;19924;-66
2022/11/21 01:34:10;;;;;;;;;;;1.00;99.90;;;;;;5104855;27;19939;-66
2022/11/21 01:36:35;;;;;;;;;;;1.00;99.90;;;;;;5102868;28;19920;-66
2022/11/21 01:39:03;;;;;;;;;;;0.90;99.90;;;;;;5103925;27;19961;-66
2022/11/21 01:41:32;;;;;;;;;;;0.80;99.90;;;;;;5100802;28;19928;-66
2022/11/21 01:44:01;;;;;;;;;;;0.80;99.90;;;;;;5110735;28;19920;-66
2022/11/21 01:46:26;;;;;;;;;;;0.70;99.90;;;;;;5101015;28;19927;-66
2022/11/21 01:48:55;;;;;;;;;;;0.60;99.90;;;;;;5093821;28;19932;-66
2022/11/21 01:51:20;;;;;;;;;;;0.60;99.90;;;;;;5123681;27;19931;-66
2022/11/21 01:53:50;;;;;;;;;;;0.50;99.90;;;;;;5100437;28;19931;-66
2022/11/21 01:56:16;;;;;;;;;;;0.50;99.90;;;;;;5100689;28;20514;-66
2022/11/21 01:58:42;;;;;;;;;;;0.40;99.90;;;;;;5100255;28;19924;-66
2022/11/21 02:01:08;;;;;;;;;;;0.40;99.90;;;;;;5102701;28;20297;-66
2022/11/21 02:03:35;;;;;;;;;;;0.30;99.90;;;;;;5084165;28;19930;-66
2022/11/21 02:06:01;;;;;;;;;;;0.30;99.90;;;;;;5107965;28;19951;-66
2022/11/21 02:08:26;;;;;;;;;;;0.20;99.90;;;;;;5100130;28;19959;-66
2022/11/21 02:11:01;;;;;;;;;;;0.20;99.90;;;;;;5105283;28;19927;-66
2022/11/21 02:13:27;;;;;;;;;;;0.20;99.90;;;;;;5101566;28;19924;-66
2022/11/21 02:15:53;;;;;;;;;;;0.10;99.90;;;;;;5104737;28;19923;-66
2022/11/21 02:18:18;;;;;;;;;;;0.00;99.90;;;;;;5106295;28;19934;-66
2022/11/21 02:20:45;;;;;;;;;;;-0.10;99.90;;;;;;5095320;28;19958;-66
2022/11/21 02:23:19;;;;;;;;;;;-0.20;99.90;;;;;;5102909;28;19935;-66
2022/11/21 02:25:45;;;;;;;;;;;-0.20;99.90;;;;;;5094342;28;19920;-66
2022/11/21 02:28:12;;;;;;;;;;;-0.20;99.90;;;;;;5080057;28;20493;-66
2022/11/21 02:30:39;;;;;;;;;;;-0.20;99.90;;;;;;5096959;28;19927;-66
2022/11/21 02:33:04;;;;;;;;;;;-0.20;99.90;;;;;;5105070;28;20033;-66
2022/11/21 02:35:30;;;;;;;;;;;-0.30;99.90;;;;;;5101172;28;20493;-66
2022/11/21 02:38:14;;;;;;;;;;;-0.30;99.90;;;;;;5103994;28;19920;-66
2022/11/21 02:40:42;;;;;;;;;;;-0.30;99.90;;;;;;5105969;28;19998;-66
2022/11/21 02:43:18;;;;;;;;;;;-0.30;99.90;;;;;;5108269;27;19920;-66
2022/11/21 02:45:45;;;;;;;;;;;-0.30;99.90;;;;;;5102949;28;19973;-66
2022/11/21 02:48:10;;;;;;;;;;;-0.30;99.90;;;;;;5105154;28;19961;-66
2022/11/21 02:50:37;;;;;;;;;;;-0.30;99.90;;;;;;5103128;28;19927;-66
2022/11/21 02:53:04;;;;;;;;;;;-0.40;99.90;;;;;;5102836;28;19968;-66
2022/11/21 02:55:29;;;;;;;;;;;-0.40;99.90;;;;;;5099740;28;19969;-66
2022/11/21 02:57:55;;;;;;;;;;;-0.40;99.90;;;;;;5110760;27;19923;-66
2022/11/21 03:00:20;;;;;;;;;;;-0.40;99.90;;;;;;5103936;28;19977;-66
2022/11/21 03:02:46;;;;;;;;;;;-0.40;99.90;;;;;;5105609;28;19926;-66
2022/11/21 03:05:13;;;;;;;;;;;-0.40;99.90;;;;;;5107933;28;19989;-66
2022/11/21 03:07:39;;;;;;;;;;;-0.40;99.90;;;;;;5104497;28;20265;-66
2022/11/21 03:10:04;;;;;;;;;;;-0.40;99.90;;;;;;5098649;28;19928;-66
2022/11/21 03:12:30;;;;;;;;;;;-0.40;99.90;;;;;;5103223;28;19930;-66
2022/11/21 03:14:55;;;;;;;;;;;-0.40;99.90;;;;;;5111918;28;19971;-66
2022/11/21 03:17:21;;;;;;;;;;;-0.40;99.90;;;;;;5097049;28;19974;-66
2022/11/21 03:19:47;;;;;;;;;;;-0.40;99.90;;;;;;5104868;28;20933;-66
2022/11/21 03:22:13;;;;;;;;;;;-0.40;99.90;;;;;;5104359;27;19966;-67
2022/11/21 03:24:38;;;;;;;;;;;-0.40;99.90;;;;;;5101463;28;19924;-66
2022/11/21 03:27:04;;;;;;;;;;;-0.50;99.90;;;;;;5090438;28;19965;-66
2022/11/21 03:29:29;;;;;;;;;;;-0.50;99.90;;;;;;5103844;28;20305;-66
2022/11/21 03:31:55;;;;;;;;;;;-0.60;99.90;;;;;;5090071;28;19927;-66
2022/11/21 03:34:20;;;;;;;;;;;-0.60;99.90;;;;;;5103279;27;19931;-66
2022/11/21 03:36:46;;;;;;;;;;;-0.60;99.90;;;;;;5107101;28;19973;-66
2022/11/21 03:39:11;;;;;;;;;;;-0.60;99.90;;;;;;5110334;28;19931;-67
2022/11/21 03:41:37;;;;;;;;;;;-0.60;99.90;;;;;;5104999;28;19968;-67
2022/11/21 03:44:02;;;;;;;;;;;-0.70;99.90;;;;;;5102993;28;20310;-67
2022/11/21 03:46:29;;;;;;;;;;;-0.70;99.90;;;;;;5097196;28;19976;-66
2022/11/21 03:48:54;;;;;;;;;;;-0.70;99.90;;;;;;5098962;28;20389;-66
2022/11/21 03:51:20;;;;;;;;;;;-0.80;99.90;;;;;;5102346;28;19924;-67
2022/11/21 03:53:46;;;;;;;;;;;-0.70;99.90;;;;;;5086588;28;20385;-66
2022/11/21 03:56:11;;;;;;;;;;;-0.70;99.90;;;;;;5100261;28;20365;-66
2022/11/21 03:58:37;;;;;;;;;;;-0.70;99.90;;;;;;5099287;28;20281;-67
2022/11/21 04:01:02;;;;;;;;;;;-0.70;99.90;;;;;;5108647;28;19919;-67
2022/11/21 04:03:28;;;;;;;;;;;-0.80;99.90;;;;;;5101054;28;20322;-67
2022/11/21 04:05:53;;;;;;;;;;;-0.80;99.90;;;;;;5104002;27;19920;-66
2022/11/21 04:08:19;;;;;;;;;;;-0.90;99.90;;;;;;5105242;28;20367;-66
2022/11/21 04:10:48;;;;;;;;;;;-0.90;99.90;;;;;;5100881;28;19931;-66
2022/11/21 04:13:14;;;;;;;;;;;-0.90;99.90;;;;;;5105939;28;19924;-66
2022/11/21 04:15:40;;;;;;;;;;;-0.90;99.90;;;;;;5109630;27;19924;-66
2022/11/21 04:18:05;;;;;;;;;;;-0.90;99.90;;;;;;5109578;28;19999;-66
2022/11/21 04:20:31;;;;;;;;;;;-0.90;99.90;;;;;;5089056;28;19923;-66
2022/11/21 04:22:56;;;;;;;;;;;-1.00;99.90;;;;;;5110015;28;19923;-66
2022/11/21 04:25:22;;;;;;;;;;;-1.00;99.90;;;;;;5105615;28;19928;-66
2022/11/21 04:27:47;;;;;;;;;;;-1.00;99.90;;;;;;5106174;27;20399;-66
2022/11/21 04:30:13;;;;;;;;;;;-1.00;99.90;;;;;;5103179;28;19919;-66
2022/11/21 04:32:38;;;;;;;;;;;-1.00;99.90;;;;;;5105253;27;19920;-66
2022/11/21 04:35:04;;;;;;;;;;;-1.10;99.90;;;;;;5085686;28;19924;-66
2022/11/21 04:37:29;;;;;;;;;;;-1.10;99.90;;;;;;5107676;28;20264;-66
2022/11/21 04:39:55;;;;;;;;;;;-1.10;99.90;;;;;;5107465;27;19930;-66
2022/11/21 04:42:20;;;;;;;;;;;-1.10;99.90;;;;;;5114211;27;19924;-66
2022/11/21 04:44:46;;;;;;;;;;;-1.10;99.90;;;;;;5103182;28;19923;-66
2022/11/21 04:47:11;;;;;;;;;;;-1.10;99.90;;;;;;5110645;28;20269;-66
2022/11/21 04:49:36;;;;;;;;;;;-1.10;99.90;;;;;;5111169;28;19919;-66
2022/11/21 04:52:02;;;;;;;;;;;-1.10;99.90;;;;;;5110924;28;19954;-66
2022/11/21 04:54:27;;;;;;;;;;;-1.10;99.90;;;;;;5108910;28;20342;-66
2022/11/21 04:56:53;;;;;;;;;;;-1.10;99.90;;;;;;5113946;27;19975;-66
2022/11/21 04:59:18;;;;;;;;;;;-1.10;99.90;;;;;;5098619;28;19924;-66
2022/11/21 05:01:44;;;;;;;;;;;-1.10;99.90;;;;;;5098271;28;20309;-66
2022/11/21 05:04:09;;;;;;;;;;;-1.10;99.90;;;;;;5085371;28;19930;-66
2022/11/21 05:06:35;;;;;;;;;;;-1.10;99.90;;;;;;5121501;27;19930;-66
2022/11/21 05:09:00;;;;;;;;;;;-1.20;99.90;;;;;;5096059;28;19924;-66
2022/11/21 05:14:10;;;;;;;;;;;-1.30;99.90;;;;;;5105162;28;20416;-66
2022/11/21 05:16:35;;;;;;;;;;;-1.40;99.90;;;;;;5099408;28;20019;-66
2022/11/21 05:19:01;;;;;;;;;;;-1.50;99.90;;;;;;5100120;28;20312;-66
2022/11/21 05:21:26;;;;;;;;;;;-1.50;99.90;;;;;;5099774;28;19930;-66
2022/11/21 05:23:52;;;;;;;;;;;-1.50;99.90;;;;;;5083851;28;20380;-66
2022/11/21 05:26:17;;;;;;;;;;;-1.50;99.90;;;;;;5103566;28;19928;-67
2022/11/21 05:28:43;;;;;;;;;;;-1.40;99.90;;;;;;5104679;28;20010;-67
2022/11/21 05:31:08;;;;;;;;;;;-1.40;99.90;;;;;;5102336;28;20389;-67
2022/11/21 05:33:33;;;;;;;;;;;-1.40;99.90;;;;;;5082061;28;19924;-67
2022/11/21 05:35:59;;;;;;;;;;;-1.40;99.90;;;;;;5100101;28;20011;-66
2022/11/21 05:38:24;;;;;;;;;;;-1.40;99.90;;;;;;5107932;28;19923;-66
2022/11/21 05:40:53;;;;;;;;;;;-1.40;99.90;;;;;;5099569;28;19938;-66
2022/11/21 05:46:02;;;;;;;;;;;-1.30;99.90;;;;;;5110859;27;19920;-66
2022/11/21 05:48:28;;;;;;;;;;;-1.30;99.90;;;;;;5110292;27;19927;-66
2022/11/21 05:50:53;;;;;;;;;;;-1.30;99.90;;;;;;5117353;27;19923;-66
2022/11/21 05:53:19;;;;;;;;;;;-1.30;99.90;;;;;;5110804;28;20357;-66
2022/11/21 05:55:45;;;;;;;;;;;-1.30;99.90;;;;;;5108034;28;19962;-66
2022/11/21 05:58:10;;;;;;;;;;;-1.30;99.90;;;;;;5111941;28;19920;-66
2022/11/21 06:00:36;;;;;;;;;;;-1.30;99.90;;;;;;5090913;28;19920;-66
2022/11/21 06:05:46;;;;;;;;;;;-1.40;99.90;;;;;;5105720;28;19924;-66
2022/11/21 06:08:12;;;;;;;;;;;-1.40;99.90;;;;;;5109790;28;19920;-66
2022/11/21 06:10:37;;;;;;;;;;;-1.50;99.90;;;;;;5109670;28;20041;-66
2022/11/21 06:13:03;;;;;;;;;;;-1.50;99.90;;;;;;5108836;28;19920;-66
2022/11/21 06:15:28;;;;;;;;;;;-1.50;99.90;;;;;;5107159;28;20280;-66
2022/11/21 06:17:54;;;;;;;;;;;-1.50;99.90;;;;;;5109060;28;19932;-66
2022/11/21 06:20:19;;;;;;;;;;;-1.60;99.90;;;;;;5106304;28;20048;-66
2022/11/21 06:22:45;;;;;;;;;;;-1.60;99.90;;;;;;5110047;28;19963;-66
2022/11/21 06:25:10;;;;;;;;;;;-1.60;99.90;;;;;;5108339;28;20409;-66
2022/11/21 06:27:36;;;;;;;;;;;-1.60;99.90;;;;;;5109688;28;19927;-66
2022/11/21 06:30:01;;;;;;;;;;;-1.60;99.90;;;;;;5104379;28;19973;-66
2022/11/21 06:32:27;;;;;;;;;;;-1.60;99.90;;;;;;5102696;28;19919;-66
2022/11/21 06:34:52;;;;;;;;;;;-1.60;99.90;;;;;;5108520;28;19928;-66
2022/11/21 06:37:18;;;;;;;;;;;-1.60;99.90;;;;;;5107045;28;20666;-66
2022/11/21 06:39:43;;;;;;;;;;;-1.60;99.90;;;;;;5109491;28;19981;-66
2022/11/21 06:42:09;;;;;;;;;;;-1.60;99.90;;;;;;5110291;28;20635;-66
2022/11/21 06:44:34;;;;;;;;;;;-1.60;99.90;;;;;;5106501;28;19920;-66
2022/11/21 06:47:00;;;;;;;;;;;-1.70;99.90;;;;;;5105397;28;19965;-66
2022/11/21 06:49:25;;;;;;;;;;;-1.80;99.90;;;;;;5104985;28;19920;-66
2022/11/21 06:51:51;;;;;;;;;;;-1.80;99.90;;;;;;5106183;28;19950;-66
2022/11/21 06:54:16;;;;;;;;;;;-1.80;99.90;;;;;;5107468;28;20344;-66
2022/11/21 06:56:42;;;;;;;;;;;-1.80;99.90;;;;;;5108845;28;20333;-66
2022/11/21 06:59:08;;;;;;;;;;;-1.80;99.90;;;;;;5109536;28;19932;-66
2022/11/21 07:01:33;;;;;;;;;;;-1.80;99.90;;;;;;5101858;28;20561;-66
2022/11/21 07:03:59;;;;;;;;;;;-1.80;99.90;;;;;;5108978;28;19926;-66
2022/11/21 07:06:24;;;;;;;;;;;-1.80;99.90;;;;;;5105834;28;20357;-66
2022/11/21 07:08:53;;;;;;;;;;;-1.90;99.90;;;;;;5107801;28;19920;-66
2022/11/21 07:11:18;;;;;;;;;;;-1.90;99.90;;;;;;5110697;28;19923;-66
2022/11/21 07:13:44;;;;;;;;;;;-1.90;99.90;;;;;;5104797;28;19996;-66
2022/11/21 07:16:13;;;;;;;;;;;-1.90;99.90;;;;;;5107960;28;19927;-66
2022/11/21 07:18:39;;;;;;;;;;;-1.80;99.90;;;;;;5106833;28;19970;-66
2022/11/21 07:21:05;;;;;;;;;;;-1.80;99.90;;;;;;5113650;28;19926;-66
2022/11/21 07:23:31;;;;;;;;;;;-1.80;99.90;;;;;;5113360;28;19924;-66
2022/11/21 07:26:04;;;;;;;;;;;-1.80;99.90;;;;;;5112350;28;19924;-66
2022/11/21 07:28:30;;;;;;;;;;;-1.80;99.90;;;;;;5108410;28;19927;-66
2022/11/21 07:30:56;;;;;;;;;;;-1.80;99.90;;;;;;5109216;28;19920;-66
2022/11/21 07:33:21;;;;;;;;;;;-1.70;99.90;;;;;;5110608;28;19930;-66
2022/11/21 07:35:47;;;;;;;;;;;-1.70;99.90;;;;;;5113323;28;20448;-66
2022/11/21 07:38:12;;;;;;;;;;;-1.70;99.90;;;;;;5113138;28;19927;-66
2022/11/21 07:40:38;;;;;;;;;;;-1.70;99.90;;;;;;5107580;28;20306;-66
2022/11/21 07:43:04;;;;;;;;;;;-1.70;99.90;;;;;;5113088;28;20010;-66
2022/11/21 07:45:30;;;;;;;;;;;-1.70;99.90;;;;;;5110472;27;19927;-66
2022/11/21 07:47:59;;;;;;;;;;;-1.70;99.90;;;;;;5112211;27;20297;-66
2022/11/21 07:50:25;;;;;;;;;;;-1.70;99.90;;;;;;5112611;28;19981;-66
2022/11/21 07:52:51;;;;;;;;;;;-1.70;99.90;;;;;;5112954;28;20381;-66
2022/11/21 07:55:16;;;;;;;;;;;-1.70;99.90;;;;;;5114473;28;19927;-66
2022/11/21 07:57:42;;;;;;;;;;;-1.70;99.90;;;;;;5108208;28;19930;-66
2022/11/21 08:00:08;;;;;;;;;;;-1.70;99.90;;;;;;5102821;28;19930;-66
2022/11/21 08:02:33;;;;;;;;;;;-1.80;99.90;;;;;;5110181;27;19974;-66
2022/11/21 08:04:58;;;;;;;;;;;-1.80;99.90;;;;;;5111432;28;19920;-66
2022/11/21 08:07:24;;;;;;;;;;;-1.70;99.90;;;;;;5110314;27;19919;-66
2022/11/21 08:09:49;;;;;;;;;;;-1.70;99.90;;;;;;5111562;28;20353;-66
2022/11/21 08:12:15;;;;;;;;;;;-1.60;99.90;;;;;;5111077;28;19930;-66
2022/11/21 08:14:40;;;;;;;;;;;-1.50;99.90;;;;;;5107796;28;19934;-66
2022/11/21 08:17:06;;;;;;;;;;;-1.40;99.90;;;;;;5107530;28;19930;-66
2022/11/21 08:19:32;;;;;;;;;;;-1.40;99.90;;;;;;5108509;27;19920;-66
2022/11/21 08:21:57;;;;;;;;;;;-1.30;99.90;;;;;;5107361;28;19958;-66
2022/11/21 08:24:23;;;;;;;;;;;-1.20;99.90;;;;;;5108807;28;19973;-66
2022/11/21 08:26:48;;;;;;;;;;;-1.20;99.90;;;;;;5111649;28;20407;-66
2022/11/21 08:29:14;;;;;;;;;;;-1.10;99.90;;;;;;5112220;28;19928;-65
2022/11/21 08:31:40;;;;;;;;;;;-1.00;99.90;;;;;;5109292;28;20010;-66
2022/11/21 08:34:06;;;;;;;;;;;-1.00;99.90;;;;;;5102487;27;20568;-65
2022/11/21 08:36:31;;;;;;;;;;;-0.90;99.90;;;;;;5107912;28;19965;-65
2022/11/21 08:38:57;;;;;;;;;;;-0.80;99.90;;;;;;5110682;28;19927;-65
2022/11/21 08:44:06;;;;;;;;;;;-0.70;99.90;;;;;;5110517;28;19919;-65
2022/11/21 08:46:36;;;;;;;;;;;-0.60;99.90;;;;;;5111074;28;19930;-65
2022/11/21 08:49:05;;;;;;;;;;;-0.60;99.90;;;;;;5110922;28;19962;-65
2022/11/21 08:51:31;;;;;;;;;;;-0.40;99.90;;;;;;5108074;28;19955;-65
2022/11/21 08:53:56;;;;;;;;;;;-0.20;99.90;;;;;;5104577;27;20008;-65
2022/11/21 08:56:22;;;;;;;;;;;-0.10;99.90;;;;;;5111919;28;20007;-65
2022/11/21 08:58:47;;;;;;;;;;;0.10;99.90;;;;;;5108584;28;19928;-65
2022/11/21 09:01:13;;;;;;;;;;;0.20;99.90;;;;;;5108821;28;19920;-64
2022/11/21 09:03:38;;;;;;;;;;;0.30;99.90;;;;;;5112413;28;20546;-65
2022/11/21 09:06:04;;;;;;;;;;;0.50;99.90;;;;;;5103236;28;19920;-65
2022/11/21 09:08:30;;;;;;;;;;;0.50;99.90;;;;;;5087801;22;19929;-67
2022/11/21 09:10:56;;;;;;;;;;;0.60;99.90;;;;;;5052480;28;19933;-67
2022/11/21 09:13:21;;;;;;;;;;;0.70;99.90;;;;;;5051856;28;20465;-67
2022/11/21 09:18:31;;;;;;;;;;;0.80;99.90;;;;;;5043929;28;20282;-66
2022/11/21 09:20:56;;;;;;;;;;;0.90;99.90;;;;;;5053055;28;19921;-67
2022/11/21 09:23:22;;;;;;;;;;;1.00;99.90;;;;;;5046971;28;19921;-66
2022/11/21 09:25:47;;;;;;;;;;;1.10;99.90;;;;;;5049314;28;19925;-66
2022/11/21 09:28:13;;;;;;;;;;;1.20;99.90;;;;;;5052280;28;19925;-66
2022/11/21 09:30:39;;;;;;;;;;;1.20;99.90;;;;;;5051454;28;19932;-66
2022/11/21 09:33:06;;;;;;;;;;;1.30;99.90;;;;;;5052962;28;19921;-67
2022/11/21 09:35:31;;;;;;;;;;;1.30;99.90;;;;;;5050662;28;19929;-66
2022/11/21 09:37:57;;;;;;;;;;;1.40;99.90;;;;;;5045601;28;20569;-66
2022/11/21 09:40:22;;;;;;;;;;;1.40;99.90;;;;;;5048597;28;20348;-66
2022/11/21 09:42:51;;;;;;;;;;;1.50;99.90;;;;;;5045436;28;19929;-66
2022/11/21 09:45:35;;;;;;;;;;;1.50;99.90;;;;;;5045853;28;19924;-66
2022/11/21 09:48:02;;;;;;;;;;;1.60;99.90;;;;;;5047520;28;19921;-67
2022/11/21 09:50:30;;;;;;;;;;;1.60;99.90;;;;;;5048887;28;19921;-66
2022/11/21 09:52:59;;;;;;;;;;;1.70;99.90;;;;;;5034208;28;20016;-66
2022/11/21 09:55:31;;;;;;;;;;;1.80;99.90;;;;;;5043444;28;19920;-67
2022/11/21 09:57:59;;;;;;;;;;;1.80;99.90;;;;;;5048361;28;19940;-67
2022/11/21 10:00:24;;;;;;;;;;;1.80;99.90;;;;;;5044127;28;19999;-66
2022/11/21 10:02:51;;;;;;;;;;;1.80;99.90;;;;;;5036828;28;20418;-66
2022/11/21 10:05:19;;;;;;;;;;;1.90;99.90;;;;;;5037378;28;19956;-66
2022/11/21 10:07:44;;;;;;;;;;;2.00;99.90;;;;;;5045696;28;19921;-66
2022/11/21 10:10:16;;;;;;;;;;;2.00;99.90;;;;;;5051264;28;19948;-66
2022/11/21 10:13:00;;;;;;;;;;;2.00;99.90;;;;;;5050983;28;19921;-66
2022/11/21 10:15:30;;;;;;;;;;;2.00;99.90;;;;;;5045271;28;20478;-67
2022/11/21 10:18:03;;;;;;;;;;;2.10;99.90;;;;;;5050793;28;20006;-66
2022/11/21 10:20:36;;;;;;;;;;;2.10;99.90;;;;;;5046961;28;19932;-67
2022/11/21 10:23:07;;;;;;;;;;;2.10;99.90;;;;;;5062190;28;19928;-67
2022/11/21 10:25:37;;;;;;;;;;;2.20;99.90;;;;;;5048517;28;20026;-67
2022/11/21 10:28:26;;;;;;;;;;;2.30;99.90;;;;;;5050873;28;19920;-67
2022/11/21 10:30:53;;;;;;;;;;;2.30;99.90;;;;;;5051446;28;19959;-67
2022/11/21 10:33:24;;;;;;;;;;;2.40;99.90;;;;;;5054459;28;20370;-67
2022/11/21 10:35:51;;;;;;;;;;;2.40;99.90;;;;;;5040577;28;19925;-68
2022/11/21 10:38:24;;;;;;;;;;;2.50;99.90;;;;;;5051690;28;19921;-68
2022/11/21 10:41:06;;;;;;;;;;;2.50;99.90;;;;;;5045869;28;19921;-67
2022/11/21 10:46:22;;;;;;;;;;;2.70;99.90;;;;;;5044785;28;19921;-67
2022/11/21 10:48:55;;;;;;;;;;;2.70;99.90;;;;;;5048901;28;19980;-67
2022/11/21 10:51:31;;;;;;;;;;;2.70;99.90;;;;;;5051051;28;19920;-68
2022/11/21 10:56:48;;;;;;;;;;;2.80;99.90;;;;;;5054090;28;20007;-67
2022/11/21 10:59:27;;;;;;;;;;;2.80;99.90;;;;;;5065034;28;20066;-67
2022/11/21 11:01:54;;;;;;;;;;;2.80;99.90;;;;;;5054545;28;19921;-68
2022/11/21 11:04:20;;;;;;;;;;;2.90;99.90;;;;;;5052099;28;19929;-67
2022/11/21 11:06:46;;;;;;;;;;;2.90;99.90;;;;;;5055170;28;19925;-67
2022/11/21 11:09:28;;;;;;;;;;;3.00;99.90;;;;;;5051999;28;19928;-67
2022/11/21 11:12:18;;;;;;;;;;;3.10;99.90;;;;;;5050471;28;19925;-67
2022/11/21 11:14:49;;;;;;;;;;;3.10;99.90;;;;;;5049576;28;20007;-67
2022/11/21 11:17:14;;;;;;;;;;;3.20;99.90;;;;;;5053457;28;19936;-68
2022/11/21 11:19:57;;;;;;;;;;;3.30;99.90;;;;;;5055022;28;19921;-67
2022/11/21 11:22:27;;;;;;;;;;;3.20;99.90;;;;;;5056714;28;19921;-67
2022/11/21 11:24:53;;;;;;;;;;;3.30;99.90;;;;;;5053157;28;19925;-68
2022/11/21 11:27:25;;;;;;;;;;;3.40;99.90;;;;;;5054773;28;19947;-67
2022/11/21 11:29:50;;;;;;;;;;;3.40;99.90;;;;;;5055537;28;19921;-67
2022/11/21 11:32:19;;;;;;;;;;;3.40;99.90;;;;;;5053493;28;19921;-67
2022/11/21 11:34:53;;;;;;;;;;;3.40;99.90;;;;;;5046344;28;19921;-67
2022/11/21 11:37:24;;;;;;;;;;;3.40;99.90;;;;;;5051321;28;20378;-67
2022/11/21 11:40:02;;;;;;;;;;;3.30;99.90;;;;;;5053967;28;19921;-67
2022/11/21 11:48:15;;;;;;;;;;;3.40;99.90;;;;;;5053166;28;19924;-67
2022/11/21 11:50:49;;;;;;;;;;;3.40;99.90;;;;;;5066883;28;19928;-67
2022/11/21 11:53:32;;;;;;;;;;;3.50;99.90;;;;;;5047129;28;19921;-67
2022/11/21 11:55:59;;;;;;;;;;;3.60;99.90;;;;;;5052126;28;20448;-67
2022/11/21 11:58:33;;;;;;;;;;;3.70;99.90;;;;;;5049072;28;19958;-67
2022/11/21 12:01:01;;;;;;;;;;;3.80;99.90;;;;;;5051418;28;19986;-67
2022/11/21 12:03:38;;;;;;;;;;;3.90;99.90;;;;;;5053960;28;19931;-67
2022/11/21 12:06:15;;;;;;;;;;;3.90;99.90;;;;;;5052803;28;19955;-68
2022/11/21 12:08:52;;;;;;;;;;;4.00;99.90;;;;;;5069491;28;19929;-67
2022/11/21 12:15:47;;;;;;;;;;;4.10;99.90;;;;;;5041800;28;20425;-67
2022/11/21 12:16:59;;;;;;;;;;;4.10;99.90;;;;;;5049359;28;19929;-67
2022/11/21 12:19:25;;;;;;;;;;;4.20;99.90;;;;;;5050973;28;19928;-67
2022/11/21 12:21:50;;;;;;;;;;;4.20;99.90;;;;;;5050646;28;20011;-67
2022/11/21 12:24:19;;;;;;;;;;;4.30;99.90;;;;;;5049743;28;19928;-67
2022/11/21 12:27:04;;;;;;;;;;;4.30;99.90;;;;;;5051900;28;20320;-67
2022/11/21 12:29:29;;;;;;;;;;;4.30;99.90;;;;;;5052193;28;19920;-67
2022/11/21 12:31:55;;;;;;;;;;;4.30;99.90;;;;;;5052792;28;19966;-68
2022/11/21 12:34:27;;;;;;;;;;;4.20;99.90;;;;;;5053681;28;19928;-67
2022/11/21 12:37:03;;;;;;;;;;;4.20;99.90;;;;;;5050653;28;19966;-67
2022/11/21 12:39:52;;;;;;;;;;;4.20;99.90;;;;;;5052115;28;19971;-67
2022/11/21 12:42:49;;;;;;;;;;;4.20;99.90;;;;;;5050224;28;19932;-67
2022/11/21 12:45:31;;;;;;;;;;;4.20;99.90;;;;;;5053389;28;20370;-67
2022/11/21 12:54:41;;;;;;;;;;;4.10;99.90;;;;;;5051767;28;19921;-67
2022/11/21 12:57:11;;;;;;;;;;;4.10;99.90;;;;;;5052721;28;20369;-67
2022/11/21 12:59:42;;;;;;;;;;;4.10;99.90;;;;;;5050914;28;19927;-67
2022/11/21 13:02:20;;;;;;;;;;;4.10;99.90;;;;;;5038063;28;19927;-67
2022/11/21 13:04:48;;;;;;;;;;;4.20;99.90;;;;;;5048430;28;20366;-67
2022/11/21 13:07:14;;;;;;;;;;;4.20;99.90;;;;;;5066373;28;21374;-67
2022/11/21 13:09:42;;;;;;;;;;;4.20;99.90;;;;;;5049941;28;19939;-67
2022/11/21 13:12:24;;;;;;;;;;;4.20;99.90;;;;;;5049110;28;19960;-67
2022/11/21 13:15:08;;;;;;;;;;;4.30;99.90;;;;;;5068776;28;20370;-68
2022/11/21 13:17:46;;;;;;;;;;;4.30;99.90;;;;;;5064833;28;19932;-67
2022/11/21 13:20:17;;;;;;;;;;;4.30;99.90;;;;;;5051412;28;20319;-67
2022/11/21 13:22:42;;;;;;;;;;;4.40;99.90;;;;;;5051467;28;19927;-67
2022/11/21 13:25:11;;;;;;;;;;;4.40;99.90;;;;;;5051153;28;20390;-67
2022/11/21 13:27:37;;;;;;;;;;;4.40;99.90;;;;;;5050614;28;20039;-67
2022/11/21 13:30:06;;;;;;;;;;;4.30;99.90;;;;;;5049426;28;19971;-67
2022/11/21 13:33:04;;;;;;;;;;;4.30;99.90;;;;;;5033482;28;19921;-67
2022/11/21 13:35:48;;;;;;;;;;;4.40;99.90;;;;;;5022050;28;19928;-67
2022/11/21 13:38:13;;;;;;;;;;;4.40;99.90;;;;;;5046674;28;20342;-67
2022/11/21 13:42:56;;;;;;;;;;;4.40;99.90;;;;;;5042950;28;19921;-67
2022/11/21 13:43:25;;;;;;;;;;;4.40;99.90;;;;;;5044971;28;19984;-67
2022/11/21 13:45:55;;;;;;;;;;;4.40;99.90;;;;;;5049713;28;20330;-67
2022/11/21 13:48:20;;;;;;;;;;;4.40;99.90;;;;;;5048824;28;19928;-67
2022/11/21 13:51:00;;;;;;;;;;;4.40;99.90;;;;;;5043576;28;19921;-67
2022/11/21 13:53:37;;;;;;;;;;;4.30;99.90;;;;;;5066464;28;20369;-67
2022/11/21 13:56:10;;;;;;;;;;;4.30;99.90;;;;;;5051512;28;20003;-67
2022/11/21 13:58:42;;;;;;;;;;;4.40;99.90;;;;;;5053066;28;19921;-67
2022/11/21 14:01:38;;;;;;;;;;;4.30;99.90;;;;;;5047468;28;19921;-68
2022/11/21 14:04:11;;;;;;;;;;;4.40;99.90;;;;;;5031603;28;19925;-68
2022/11/21 14:06:38;;;;;;;;;;;4.40;99.90;;;;;;5045290;28;19921;-68
2022/11/21 14:09:10;;;;;;;;;;;4.40;99.90;;;;;;5072735;28;20398;-68
2022/11/21 14:11:38;;;;;;;;;;;4.40;99.90;;;;;;5039171;28;19925;-68
2022/11/21 14:14:03;;;;;;;;;;;4.40;99.90;;;;;;5046226;28;20011;-68
2022/11/21 14:16:42;;;;;;;;;;;4.40;99.90;;;;;;5047285;28;20501;-68
2022/11/21 14:19:17;;;;;;;;;;;4.40;99.90;;;;;;5064291;28;20560;-68
2022/11/21 14:21:44;;;;;;;;;;;4.40;99.90;;;;;;5043811;28;19974;-68
2022/11/21 14:24:17;;;;;;;;;;;4.30;99.90;;;;;;5040473;28;19948;-68
2022/11/21 14:26:44;;;;;;;;;;;4.30;99.90;;;;;;5042062;28;20000;-68
2022/11/21 14:29:25;;;;;;;;;;;4.30;99.90;;;;;;5047219;28;19921;-68
2022/11/21 14:31:51;;;;;;;;;;;4.20;99.90;;;;;;5053929;28;19920;-68
2022/11/21 14:34:24;;;;;;;;;;;4.20;99.90;;;;;;5048650;28;19920;-68
2022/11/21 14:36:49;;;;;;;;;;;4.10;99.90;;;;;;5038833;28;19925;-67
2022/11/21 14:39:16;;;;;;;;;;;4.10;99.90;;;;;;5050190;28;20414;-67
2022/11/21 14:41:43;;;;;;;;;;;4.00;99.90;;;;;;5054838;28;19920;-67
2022/11/21 14:44:09;;;;;;;;;;;4.00;99.90;;;;;;5055101;28;20050;-67
2022/11/21 14:46:36;;;;;;;;;;;4.00;99.90;;;;;;5051859;28;20004;-67
2022/11/21 14:49:20;;;;;;;;;;;4.00;99.90;;;;;;5069474;28;20374;-67
2022/11/21 14:51:51;;;;;;;;;;;4.00;99.90;;;;;;5053959;28;20034;-67
2022/11/21 14:54:21;;;;;;;;;;;4.00;99.90;;;;;;5061957;28;20388;-67
2022/11/21 14:57:09;;;;;;;;;;;3.90;99.90;;;;;;5057469;28;19944;-67
2022/11/21 14:59:38;;;;;;;;;;;3.90;99.90;;;;;;5068232;28;19927;-67
2022/11/21 15:02:11;;;;;;;;;;;3.90;99.90;;;;;;5046168;28;20405;-67
2022/11/21 15:04:36;;;;;;;;;;;3.90;99.90;;;;;;5047410;28;19928;-67